sensor_id;sensor_type;location;lat;lon;timestamp;P1;durP1;ratioP1;P2;durP2;ratioP2
37785;SDS011;23625;48.784;9.336;2023-05-16T00:01:25;18.70;;;9.35;;
37785;SDS011;23625;48.784;9.336;2023-05-16T00:03:54;12.55;;;8.73;;
37785;SDS011;23625;48.784;9.336;2023-05-16T00:06:20;15.65;;;8.40;;
37785;SDS011;23625;48.784;9.336;2023-05-16T00:08:47;16.70;;;9.25;;
37785;SDS011;23625;48.784;9.336;2023-05-16T00:11:12;15.80;;;8.73;;
37785;SDS011;23625;48.784;9.336;2023-05-16T00:13:38;12.07;;;7.95;;
37785;SDS011;23625;48.784;9.336;2023-05-16T00:16:06;15.68;;;9.30;;
37785;SDS011;23625;48.784;9.336;2023-05-16T00:18:32;15.30;;;9.57;;
37785;SDS011;23625;48.784;9.336;2023-05-16T00:21:01;15.10;;;9.35;;
37785;SDS011;23625;48.784;9.336;2023-05-16T00:23:27;15.27;;;9.18;;
37785;SDS011;23625;48.784;9.336;2023-05-16T00:25:53;17.23;;;10.45;;
37785;SDS011;23625;48.784;9.336;2023-05-16T00:28:18;14.35;;;9.20;;
37785;SDS011;23625;48.784;9.336;2023-05-16T00:30:44;19.15;;;9.75;;
37785;SDS011;23625;48.784;9.336;2023-05-16T00:33:09;19.58;;;9.05;;
37785;SDS011;23625;48.784;9.336;2023-05-16T00:35:35;15.00;;;9.93;;
37785;SDS011;23625;48.784;9.336;2023-05-16T00:38:01;16.55;;;9.45;;
37785;SDS011;23625;48.784;9.336;2023-05-16T00:40:27;17.23;;;10.38;;
37785;SDS011;23625;48.784;9.336;2023-05-16T00:42:53;20.13;;;9.32;;
37785;SDS011;23625;48.784;9.336;2023-05-16T00:45:18;18.20;;;10.30;;
37785;SDS011;23625;48.784;9.336;2023-05-16T00:47:44;17.25;;;9.50;;
37785;SDS011;23625;48.784;9.336;2023-05-16T00:50:09;15.27;;;9.77;;
37785;SDS011;23625;48.784;9.336;2023-05-16T00:52:35;15.85;;;10.35;;
37785;SDS011;23625;48.784;9.336;2023-05-16T00:55:01;17.50;;;10.70;;
37785;SDS011;23625;48.784;9.336;2023-05-16T00:57:27;21.17;;;10.98;;
37785;SDS011;23625;48.784;9.336;2023-05-16T00:59:53;15.05;;;10.40;;
37785;SDS011;23625;48.784;9.336;2023-05-16T01:02:19;17.25;;;11.13;;
37785;SDS011;23625;48.784;9.336;2023-05-16T01:04:45;21.08;;;10.85;;
37785;SDS011;23625;48.784;9.336;2023-05-16T01:07:12;20.55;;;10.88;;
37785;SDS011;23625;48.784;9.336;2023-05-16T01:09:38;20.30;;;11.05;;
37785;SDS011;23625;48.784;9.336;2023-05-16T01:12:15;17.00;;;10.00;;
37785;SDS011;23625;48.784;9.336;2023-05-16T01:14:50;17.08;;;10.15;;
37785;SDS011;23625;48.784;9.336;2023-05-16T01:17:32;17.02;;;10.18;;
37785;SDS011;23625;48.784;9.336;2023-05-16T01:22:58;18.83;;;10.60;;
37785;SDS011;23625;48.784;9.336;2023-05-16T01:25:36;18.67;;;11.43;;
37785;SDS011;23625;48.784;9.336;2023-05-16T01:28:09;21.42;;;11.15;;
37785;SDS011;23625;48.784;9.336;2023-05-16T01:30:38;18.83;;;11.43;;
37785;SDS011;23625;48.784;9.336;2023-05-16T01:33:05;17.17;;;10.75;;
37785;SDS011;23625;48.784;9.336;2023-05-16T01:35:32;21.50;;;12.23;;
37785;SDS011;23625;48.784;9.336;2023-05-16T01:40:35;23.90;;;12.85;;
37785;SDS011;23625;48.784;9.336;2023-05-16T01:43:10;22.35;;;12.23;;
37785;SDS011;23625;48.784;9.336;2023-05-16T01:45:38;21.70;;;12.45;;
37785;SDS011;23625;48.784;9.336;2023-05-16T01:48:21;19.58;;;10.80;;
37785;SDS011;23625;48.784;9.336;2023-05-16T01:50:54;39.25;;;17.20;;
37785;SDS011;23625;48.784;9.336;2023-05-16T01:53:23;24.13;;;13.80;;
37785;SDS011;23625;48.784;9.336;2023-05-16T01:55:52;22.77;;;13.00;;
37785;SDS011;23625;48.784;9.336;2023-05-16T01:58:22;22.00;;;12.65;;
37785;SDS011;23625;48.784;9.336;2023-05-16T02:00:52;20.35;;;11.65;;
37785;SDS011;23625;48.784;9.336;2023-05-16T02:03:18;20.35;;;11.82;;
37785;SDS011;23625;48.784;9.336;2023-05-16T02:05:43;24.65;;;13.35;;
37785;SDS011;23625;48.784;9.336;2023-05-16T02:08:09;23.05;;;12.52;;
37785;SDS011;23625;48.784;9.336;2023-05-16T02:10:35;31.92;;;17.48;;
37785;SDS011;23625;48.784;9.336;2023-05-16T02:13:00;26.85;;;13.98;;
37785;SDS011;23625;48.784;9.336;2023-05-16T02:15:26;24.83;;;13.15;;
37785;SDS011;23625;48.784;9.336;2023-05-16T02:17:52;26.10;;;14.55;;
37785;SDS011;23625;48.784;9.336;2023-05-16T02:20:18;26.45;;;13.88;;
37785;SDS011;23625;48.784;9.336;2023-05-16T02:22:44;20.10;;;12.20;;
37785;SDS011;23625;48.784;9.336;2023-05-16T02:25:12;41.00;;;13.48;;
37785;SDS011;23625;48.784;9.336;2023-05-16T02:27:39;29.85;;;16.63;;
37785;SDS011;23625;48.784;9.336;2023-05-16T02:30:05;22.88;;;14.20;;
37785;SDS011;23625;48.784;9.336;2023-05-16T02:32:31;20.67;;;12.80;;
37785;SDS011;23625;48.784;9.336;2023-05-16T02:34:57;28.83;;;14.57;;
37785;SDS011;23625;48.784;9.336;2023-05-16T02:37:23;28.42;;;14.57;;
37785;SDS011;23625;48.784;9.336;2023-05-16T02:39:49;25.20;;;14.32;;
37785;SDS011;23625;48.784;9.336;2023-05-16T02:42:14;30.17;;;15.75;;
37785;SDS011;23625;48.784;9.336;2023-05-16T02:44:40;27.25;;;14.98;;
37785;SDS011;23625;48.784;9.336;2023-05-16T02:47:06;30.80;;;15.82;;
37785;SDS011;23625;48.784;9.336;2023-05-16T02:49:31;26.02;;;14.40;;
37785;SDS011;23625;48.784;9.336;2023-05-16T02:51:57;24.98;;;14.75;;
37785;SDS011;23625;48.784;9.336;2023-05-16T02:54:22;78.55;;;17.65;;
37785;SDS011;23625;48.784;9.336;2023-05-16T02:56:48;25.65;;;14.98;;
37785;SDS011;23625;48.784;9.336;2023-05-16T02:59:13;26.35;;;13.82;;
37785;SDS011;23625;48.784;9.336;2023-05-16T03:01:39;36.00;;;16.48;;
37785;SDS011;23625;48.784;9.336;2023-05-16T03:04:05;31.27;;;15.93;;
37785;SDS011;23625;48.784;9.336;2023-05-16T03:06:31;25.88;;;15.35;;
37785;SDS011;23625;48.784;9.336;2023-05-16T03:08:56;25.20;;;14.52;;
37785;SDS011;23625;48.784;9.336;2023-05-16T03:11:22;26.05;;;15.48;;
37785;SDS011;23625;48.784;9.336;2023-05-16T03:13:49;26.25;;;14.43;;
37785;SDS011;23625;48.784;9.336;2023-05-16T03:16:15;35.67;;;18.05;;
37785;SDS011;23625;48.784;9.336;2023-05-16T03:18:41;44.95;;;20.05;;
37785;SDS011;23625;48.784;9.336;2023-05-16T03:21:07;33.97;;;17.50;;
37785;SDS011;23625;48.784;9.336;2023-05-16T03:23:32;31.58;;;17.90;;
37785;SDS011;23625;48.784;9.336;2023-05-16T03:25:58;41.13;;;19.88;;
37785;SDS011;23625;48.784;9.336;2023-05-16T03:28:24;47.75;;;23.30;;
37785;SDS011;23625;48.784;9.336;2023-05-16T03:30:50;59.38;;;26.98;;
37785;SDS011;23625;48.784;9.336;2023-05-16T03:33:16;54.95;;;26.80;;
37785;SDS011;23625;48.784;9.336;2023-05-16T03:35:43;52.88;;;24.80;;
37785;SDS011;23625;48.784;9.336;2023-05-16T03:38:09;45.28;;;23.20;;
37785;SDS011;23625;48.784;9.336;2023-05-16T03:40:34;46.55;;;23.13;;
37785;SDS011;23625;48.784;9.336;2023-05-16T03:43:00;51.15;;;26.05;;
37785;SDS011;23625;48.784;9.336;2023-05-16T03:45:25;62.53;;;31.05;;
37785;SDS011;23625;48.784;9.336;2023-05-16T03:47:51;68.00;;;31.05;;
37785;SDS011;23625;48.784;9.336;2023-05-16T03:50:17;65.32;;;32.45;;
37785;SDS011;23625;48.784;9.336;2023-05-16T03:52:42;51.88;;;26.08;;
37785;SDS011;23625;48.784;9.336;2023-05-16T03:55:08;68.53;;;31.88;;
37785;SDS011;23625;48.784;9.336;2023-05-16T03:57:34;66.53;;;31.38;;
37785;SDS011;23625;48.784;9.336;2023-05-16T04:00:02;67.05;;;31.33;;
37785;SDS011;23625;48.784;9.336;2023-05-16T04:02:31;55.95;;;27.73;;
37785;SDS011;23625;48.784;9.336;2023-05-16T04:04:57;73.43;;;31.20;;
37785;SDS011;23625;48.784;9.336;2023-05-16T04:07:22;69.88;;;31.50;;
37785;SDS011;23625;48.784;9.336;2023-05-16T04:09:48;63.90;;;30.42;;
37785;SDS011;23625;48.784;9.336;2023-05-16T04:12:13;80.72;;;36.92;;
37785;SDS011;23625;48.784;9.336;2023-05-16T04:14:39;91.70;;;39.55;;
37785;SDS011;23625;48.784;9.336;2023-05-16T04:17:05;101.10;;;40.92;;
37785;SDS011;23625;48.784;9.336;2023-05-16T04:19:30;100.03;;;41.30;;
37785;SDS011;23625;48.784;9.336;2023-05-16T04:21:56;90.55;;;40.45;;
37785;SDS011;23625;48.784;9.336;2023-05-16T04:24:21;83.63;;;37.10;;
37785;SDS011;23625;48.784;9.336;2023-05-16T04:26:50;88.90;;;39.03;;
37785;SDS011;23625;48.784;9.336;2023-05-16T04:29:16;86.57;;;39.03;;
37785;SDS011;23625;48.784;9.336;2023-05-16T04:31:42;82.43;;;36.78;;
37785;SDS011;23625;48.784;9.336;2023-05-16T04:34:07;81.38;;;37.05;;
37785;SDS011;23625;48.784;9.336;2023-05-16T04:36:33;90.35;;;40.33;;
37785;SDS011;23625;48.784;9.336;2023-05-16T04:38:59;94.53;;;39.88;;
37785;SDS011;23625;48.784;9.336;2023-05-16T04:41:25;98.07;;;39.40;;
37785;SDS011;23625;48.784;9.336;2023-05-16T04:43:51;99.00;;;43.30;;
37785;SDS011;23625;48.784;9.336;2023-05-16T04:46:17;82.22;;;36.22;;
37785;SDS011;23625;48.784;9.336;2023-05-16T04:48:44;83.07;;;35.95;;
37785;SDS011;23625;48.784;9.336;2023-05-16T04:51:10;90.43;;;39.28;;
37785;SDS011;23625;48.784;9.336;2023-05-16T04:53:36;85.07;;;38.03;;
37785;SDS011;23625;48.784;9.336;2023-05-16T04:56:01;80.65;;;37.50;;
37785;SDS011;23625;48.784;9.336;2023-05-16T04:58:29;91.68;;;40.08;;
37785;SDS011;23625;48.784;9.336;2023-05-16T05:00:55;88.60;;;39.63;;
37785;SDS011;23625;48.784;9.336;2023-05-16T05:03:21;91.15;;;40.28;;
37785;SDS011;23625;48.784;9.336;2023-05-16T05:05:47;96.13;;;41.95;;
37785;SDS011;23625;48.784;9.336;2023-05-16T05:08:13;82.47;;;35.83;;
37785;SDS011;23625;48.784;9.336;2023-05-16T05:10:39;93.55;;;37.53;;
37785;SDS011;23625;48.784;9.336;2023-05-16T05:13:05;78.13;;;35.78;;
37785;SDS011;23625;48.784;9.336;2023-05-16T05:15:30;83.07;;;36.95;;
37785;SDS011;23625;48.784;9.336;2023-05-16T05:17:56;85.05;;;36.25;;
37785;SDS011;23625;48.784;9.336;2023-05-16T05:20:22;76.63;;;35.83;;
37785;SDS011;23625;48.784;9.336;2023-05-16T05:22:47;70.97;;;34.60;;
37785;SDS011;23625;48.784;9.336;2023-05-16T05:25:13;74.10;;;36.28;;
37785;SDS011;23625;48.784;9.336;2023-05-16T05:27:38;80.65;;;34.95;;
37785;SDS011;23625;48.784;9.336;2023-05-16T05:30:04;81.60;;;35.38;;
37785;SDS011;23625;48.784;9.336;2023-05-16T05:32:30;85.93;;;36.90;;
37785;SDS011;23625;48.784;9.336;2023-05-16T05:34:56;82.18;;;34.67;;
37785;SDS011;23625;48.784;9.336;2023-05-16T05:37:22;77.10;;;35.42;;
37785;SDS011;23625;48.784;9.336;2023-05-16T05:39:48;83.05;;;37.78;;
37785;SDS011;23625;48.784;9.336;2023-05-16T05:42:13;85.28;;;36.63;;
37785;SDS011;23625;48.784;9.336;2023-05-16T05:44:39;90.45;;;39.33;;
37785;SDS011;23625;48.784;9.336;2023-05-16T05:47:05;87.63;;;39.22;;
37785;SDS011;23625;48.784;9.336;2023-05-16T05:49:31;97.57;;;40.63;;
37785;SDS011;23625;48.784;9.336;2023-05-16T05:51:57;88.40;;;38.60;;
37785;SDS011;23625;48.784;9.336;2023-05-16T05:54:23;87.63;;;38.92;;
37785;SDS011;23625;48.784;9.336;2023-05-16T05:56:49;83.82;;;37.83;;
37785;SDS011;23625;48.784;9.336;2023-05-16T05:59:14;88.38;;;38.42;;
37785;SDS011;23625;48.784;9.336;2023-05-16T06:01:40;77.55;;;36.28;;
37785;SDS011;23625;48.784;9.336;2023-05-16T06:04:07;74.35;;;34.95;;
37785;SDS011;23625;48.784;9.336;2023-05-16T06:06:33;77.10;;;36.10;;
37785;SDS011;23625;48.784;9.336;2023-05-16T06:08:58;72.90;;;36.15;;
37785;SDS011;23625;48.784;9.336;2023-05-16T06:11:24;75.18;;;35.90;;
37785;SDS011;23625;48.784;9.336;2023-05-16T06:13:50;78.20;;;36.20;;
37785;SDS011;23625;48.784;9.336;2023-05-16T06:16:16;68.20;;;33.45;;
37785;SDS011;23625;48.784;9.336;2023-05-16T06:18:41;68.97;;;33.25;;
37785;SDS011;23625;48.784;9.336;2023-05-16T06:21:07;76.43;;;35.65;;
37785;SDS011;23625;48.784;9.336;2023-05-16T06:23:33;67.95;;;33.47;;
37785;SDS011;23625;48.784;9.336;2023-05-16T06:26:00;73.28;;;33.13;;
37785;SDS011;23625;48.784;9.336;2023-05-16T06:28:26;72.55;;;34.65;;
37785;SDS011;23625;48.784;9.336;2023-05-16T06:30:52;69.85;;;31.92;;
37785;SDS011;23625;48.784;9.336;2023-05-16T06:33:18;68.38;;;34.35;;
37785;SDS011;23625;48.784;9.336;2023-05-16T06:35:43;64.45;;;31.95;;
37785;SDS011;23625;48.784;9.336;2023-05-16T06:38:09;70.18;;;33.15;;
37785;SDS011;23625;48.784;9.336;2023-05-16T06:40:35;63.88;;;31.90;;
37785;SDS011;23625;48.784;9.336;2023-05-16T06:43:01;63.42;;;31.95;;
37785;SDS011;23625;48.784;9.336;2023-05-16T06:45:27;60.05;;;31.13;;
37785;SDS011;23625;48.784;9.336;2023-05-16T06:47:53;71.40;;;31.80;;
37785;SDS011;23625;48.784;9.336;2023-05-16T06:50:20;61.80;;;30.95;;
37785;SDS011;23625;48.784;9.336;2023-05-16T06:52:46;60.28;;;30.05;;
37785;SDS011;23625;48.784;9.336;2023-05-16T06:55:12;67.15;;;30.80;;
37785;SDS011;23625;48.784;9.336;2023-05-16T06:57:38;59.03;;;29.25;;
37785;SDS011;23625;48.784;9.336;2023-05-16T07:00:03;70.20;;;32.45;;
37785;SDS011;23625;48.784;9.336;2023-05-16T07:02:30;62.08;;;28.42;;
37785;SDS011;23625;48.784;9.336;2023-05-16T07:04:55;58.00;;;27.25;;
37785;SDS011;23625;48.784;9.336;2023-05-16T07:07:21;57.60;;;27.45;;
37785;SDS011;23625;48.784;9.336;2023-05-16T07:09:47;51.80;;;26.17;;
37785;SDS011;23625;48.784;9.336;2023-05-16T07:12:12;53.85;;;26.05;;
37785;SDS011;23625;48.784;9.336;2023-05-16T07:14:38;55.28;;;25.88;;
37785;SDS011;23625;48.784;9.336;2023-05-16T07:17:04;53.95;;;26.00;;
37785;SDS011;23625;48.784;9.336;2023-05-16T07:19:30;53.10;;;26.75;;
37785;SDS011;23625;48.784;9.336;2023-05-16T07:21:56;46.80;;;25.17;;
37785;SDS011;23625;48.784;9.336;2023-05-16T07:24:21;47.95;;;23.38;;
37785;SDS011;23625;48.784;9.336;2023-05-16T07:26:47;46.22;;;23.67;;
37785;SDS011;23625;48.784;9.336;2023-05-16T07:29:13;39.83;;;21.35;;
37785;SDS011;23625;48.784;9.336;2023-05-16T07:31:38;42.78;;;20.85;;
37785;SDS011;23625;48.784;9.336;2023-05-16T07:34:04;32.20;;;19.13;;
37785;SDS011;23625;48.784;9.336;2023-05-16T07:36:30;33.40;;;18.95;;
37785;SDS011;23625;48.784;9.336;2023-05-16T07:38:56;36.38;;;18.88;;
37785;SDS011;23625;48.784;9.336;2023-05-16T07:41:21;43.72;;;21.60;;
37785;SDS011;23625;48.784;9.336;2023-05-16T07:43:47;33.83;;;18.67;;
37785;SDS011;23625;48.784;9.336;2023-05-16T07:46:12;35.85;;;19.40;;
37785;SDS011;23625;48.784;9.336;2023-05-16T07:48:38;33.65;;;17.52;;
37785;SDS011;23625;48.784;9.336;2023-05-16T07:51:03;34.40;;;18.42;;
37785;SDS011;23625;48.784;9.336;2023-05-16T07:53:29;37.70;;;20.95;;
37785;SDS011;23625;48.784;9.336;2023-05-16T07:55:55;47.78;;;23.90;;
37785;SDS011;23625;48.784;9.336;2023-05-16T07:58:20;44.92;;;23.73;;
37785;SDS011;23625;48.784;9.336;2023-05-16T08:00:46;38.63;;;21.13;;
37785;SDS011;23625;48.784;9.336;2023-05-16T08:03:12;41.17;;;21.83;;
37785;SDS011;23625;48.784;9.336;2023-05-16T08:05:37;38.22;;;21.02;;
37785;SDS011;23625;48.784;9.336;2023-05-16T08:08:03;39.83;;;19.33;;
37785;SDS011;23625;48.784;9.336;2023-05-16T08:10:29;38.55;;;19.60;;
37785;SDS011;23625;48.784;9.336;2023-05-16T08:12:55;38.10;;;20.30;;
37785;SDS011;23625;48.784;9.336;2023-05-16T08:15:21;34.00;;;18.67;;
37785;SDS011;23625;48.784;9.336;2023-05-16T08:17:46;48.10;;;26.30;;
37785;SDS011;23625;48.784;9.336;2023-05-16T08:20:12;31.80;;;18.55;;
37785;SDS011;23625;48.784;9.336;2023-05-16T08:22:37;37.90;;;20.55;;
37785;SDS011;23625;48.784;9.336;2023-05-16T08:25:03;33.90;;;19.80;;
37785;SDS011;23625;48.784;9.336;2023-05-16T08:27:30;34.45;;;19.85;;
37785;SDS011;23625;48.784;9.336;2023-05-16T08:29:55;32.03;;;19.52;;
37785;SDS011;23625;48.784;9.336;2023-05-16T08:32:21;32.65;;;18.67;;
37785;SDS011;23625;48.784;9.336;2023-05-16T08:34:47;31.13;;;17.77;;
37785;SDS011;23625;48.784;9.336;2023-05-16T08:37:12;27.70;;;16.42;;
37785;SDS011;23625;48.784;9.336;2023-05-16T08:39:38;36.55;;;18.90;;
37785;SDS011;23625;48.784;9.336;2023-05-16T08:42:04;29.52;;;17.25;;
37785;SDS011;23625;48.784;9.336;2023-05-16T08:44:30;34.60;;;17.67;;
37785;SDS011;23625;48.784;9.336;2023-05-16T08:46:56;28.25;;;17.80;;
37785;SDS011;23625;48.784;9.336;2023-05-16T08:49:26;31.73;;;18.13;;
37785;SDS011;23625;48.784;9.336;2023-05-16T08:51:55;33.97;;;17.50;;
37785;SDS011;23625;48.784;9.336;2023-05-16T08:54:22;37.40;;;18.58;;
37785;SDS011;23625;48.784;9.336;2023-05-16T08:56:48;30.63;;;17.55;;
37785;SDS011;23625;48.784;9.336;2023-05-16T08:59:14;33.90;;;17.25;;
37785;SDS011;23625;48.784;9.336;2023-05-16T09:01:40;27.50;;;16.25;;
37785;SDS011;23625;48.784;9.336;2023-05-16T09:04:07;34.13;;;17.33;;
37785;SDS011;23625;48.784;9.336;2023-05-16T09:06:33;31.50;;;17.13;;
37785;SDS011;23625;48.784;9.336;2023-05-16T09:09:00;30.63;;;17.60;;
37785;SDS011;23625;48.784;9.336;2023-05-16T09:11:26;31.08;;;18.92;;
37785;SDS011;23625;48.784;9.336;2023-05-16T09:13:52;32.95;;;18.50;;
37785;SDS011;23625;48.784;9.336;2023-05-16T09:16:18;32.05;;;17.98;;
37785;SDS011;23625;48.784;9.336;2023-05-16T09:18:45;34.47;;;19.20;;
37785;SDS011;23625;48.784;9.336;2023-05-16T09:21:17;35.95;;;18.75;;
37785;SDS011;23625;48.784;9.336;2023-05-16T09:23:43;32.97;;;17.67;;
37785;SDS011;23625;48.784;9.336;2023-05-16T09:26:09;31.67;;;17.92;;
37785;SDS011;23625;48.784;9.336;2023-05-16T09:28:36;33.05;;;18.25;;
37785;SDS011;23625;48.784;9.336;2023-05-16T09:31:03;35.33;;;18.60;;
37785;SDS011;23625;48.784;9.336;2023-05-16T09:33:29;33.60;;;18.58;;
37785;SDS011;23625;48.784;9.336;2023-05-16T09:35:58;34.85;;;19.00;;
37785;SDS011;23625;48.784;9.336;2023-05-16T09:38:25;35.00;;;18.98;;
37785;SDS011;23625;48.784;9.336;2023-05-16T09:40:55;32.83;;;19.35;;
37785;SDS011;23625;48.784;9.336;2023-05-16T09:43:23;38.08;;;19.83;;
37785;SDS011;23625;48.784;9.336;2023-05-16T09:45:50;34.53;;;19.33;;
37785;SDS011;23625;48.784;9.336;2023-05-16T09:48:18;37.15;;;18.98;;
37785;SDS011;23625;48.784;9.336;2023-05-16T09:50:45;32.70;;;18.58;;
37785;SDS011;23625;48.784;9.336;2023-05-16T09:53:17;36.00;;;20.00;;
37785;SDS011;23625;48.784;9.336;2023-05-16T09:55:58;36.25;;;20.33;;
37785;SDS011;23625;48.784;9.336;2023-05-16T09:58:44;35.08;;;19.70;;
37785;SDS011;23625;48.784;9.336;2023-05-16T10:01:11;41.25;;;20.58;;
37785;SDS011;23625;48.784;9.336;2023-05-16T10:03:37;45.38;;;22.83;;
37785;SDS011;23625;48.784;9.336;2023-05-16T10:06:04;37.03;;;20.92;;
37785;SDS011;23625;48.784;9.336;2023-05-16T10:08:32;41.08;;;20.88;;
37785;SDS011;23625;48.784;9.336;2023-05-16T10:11:01;38.65;;;21.40;;
37785;SDS011;23625;48.784;9.336;2023-05-16T10:13:31;44.80;;;21.60;;
37785;SDS011;23625;48.784;9.336;2023-05-16T10:15:58;43.80;;;23.10;;
37785;SDS011;23625;48.784;9.336;2023-05-16T10:18:28;44.38;;;22.25;;
37785;SDS011;23625;48.784;9.336;2023-05-16T10:20:56;43.78;;;22.10;;
37785;SDS011;23625;48.784;9.336;2023-05-16T10:23:25;45.67;;;20.50;;
37785;SDS011;23625;48.784;9.336;2023-05-16T10:25:51;40.75;;;22.40;;
37785;SDS011;23625;48.784;9.336;2023-05-16T10:28:19;39.17;;;20.08;;
37785;SDS011;23625;48.784;9.336;2023-05-16T10:30:46;40.40;;;20.38;;
37785;SDS011;23625;48.784;9.336;2023-05-16T10:33:15;42.72;;;21.83;;
37785;SDS011;23625;48.784;9.336;2023-05-16T10:35:43;46.60;;;22.02;;
37785;SDS011;23625;48.784;9.336;2023-05-16T10:38:10;43.60;;;19.92;;
37785;SDS011;23625;48.784;9.336;2023-05-16T10:40:38;42.15;;;20.63;;
37785;SDS011;23625;48.784;9.336;2023-05-16T10:43:06;39.55;;;20.80;;
37785;SDS011;23625;48.784;9.336;2023-05-16T10:45:33;38.53;;;20.58;;
37785;SDS011;23625;48.784;9.336;2023-05-16T10:48:00;42.63;;;21.73;;
37785;SDS011;23625;48.784;9.336;2023-05-16T10:53:19;40.65;;;21.23;;
37785;SDS011;23625;48.784;9.336;2023-05-16T10:58:25;39.33;;;19.70;;
37785;SDS011;23625;48.784;9.336;2023-05-16T11:06:28;40.08;;;20.23;;
37785;SDS011;23625;48.784;9.336;2023-05-16T11:14:04;34.13;;;16.77;;
37785;SDS011;23625;48.784;9.336;2023-05-16T11:16:30;35.08;;;17.65;;
37785;SDS011;23625;48.784;9.336;2023-05-16T11:19:06;35.47;;;18.98;;
37785;SDS011;23625;48.784;9.336;2023-05-16T11:24:34;34.63;;;17.30;;
37785;SDS011;23625;48.784;9.336;2023-05-16T11:27:01;31.85;;;16.20;;
37785;SDS011;23625;48.784;9.336;2023-05-16T11:29:34;35.40;;;17.55;;
37785;SDS011;23625;48.784;9.336;2023-05-16T11:32:01;36.35;;;16.45;;
37785;SDS011;23625;48.784;9.336;2023-05-16T11:34:30;32.97;;;16.42;;
37785;SDS011;23625;48.784;9.336;2023-05-16T11:36:59;32.80;;;16.90;;
37785;SDS011;23625;48.784;9.336;2023-05-16T11:39:26;33.78;;;16.25;;
37785;SDS011;23625;48.784;9.336;2023-05-16T11:41:54;31.65;;;15.00;;
37785;SDS011;23625;48.784;9.336;2023-05-16T11:44:20;31.08;;;14.73;;
37785;SDS011;23625;48.784;9.336;2023-05-16T11:46:45;30.50;;;15.20;;
37785;SDS011;23625;48.784;9.336;2023-05-16T11:49:11;26.98;;;12.55;;
37785;SDS011;23625;48.784;9.336;2023-05-16T11:51:38;24.13;;;12.55;;
37785;SDS011;23625;48.784;9.336;2023-05-16T11:54:04;25.48;;;12.60;;
37785;SDS011;23625;48.784;9.336;2023-05-16T11:56:30;24.60;;;11.93;;
37785;SDS011;23625;48.784;9.336;2023-05-16T11:58:56;25.70;;;13.63;;
37785;SDS011;23625;48.784;9.336;2023-05-16T12:01:24;22.85;;;12.25;;
37785;SDS011;23625;48.784;9.336;2023-05-16T12:03:53;24.95;;;12.93;;
37785;SDS011;23625;48.784;9.336;2023-05-16T12:06:22;22.55;;;11.50;;
37785;SDS011;23625;48.784;9.336;2023-05-16T12:08:51;19.13;;;11.23;;
37785;SDS011;23625;48.784;9.336;2023-05-16T12:11:17;23.50;;;12.32;;
37785;SDS011;23625;48.784;9.336;2023-05-16T12:13:43;23.27;;;11.63;;
37785;SDS011;23625;48.784;9.336;2023-05-16T12:16:10;17.90;;;10.45;;
37785;SDS011;23625;48.784;9.336;2023-05-16T12:18:36;20.98;;;9.98;;
37785;SDS011;23625;48.784;9.336;2023-05-16T12:21:03;21.38;;;11.02;;
37785;SDS011;23625;48.784;9.336;2023-05-16T12:23:31;17.98;;;10.20;;
37785;SDS011;23625;48.784;9.336;2023-05-16T12:25:57;19.30;;;9.00;;
37785;SDS011;23625;48.784;9.336;2023-05-16T12:28:25;15.32;;;8.77;;
37785;SDS011;23625;48.784;9.336;2023-05-16T12:30:57;17.30;;;8.68;;
37785;SDS011;23625;48.784;9.336;2023-05-16T12:33:23;13.52;;;8.05;;
37785;SDS011;23625;48.784;9.336;2023-05-16T12:35:48;17.02;;;7.93;;
37785;SDS011;23625;48.784;9.336;2023-05-16T12:38:16;16.40;;;8.30;;
37785;SDS011;23625;48.784;9.336;2023-05-16T12:40:44;16.85;;;8.45;;
37785;SDS011;23625;48.784;9.336;2023-05-16T12:43:14;15.77;;;7.75;;
37785;SDS011;23625;48.784;9.336;2023-05-16T12:45:41;13.98;;;7.10;;
37785;SDS011;23625;48.784;9.336;2023-05-16T12:48:13;11.35;;;6.63;;
37785;SDS011;23625;48.784;9.336;2023-05-16T12:50:39;9.32;;;6.15;;
37785;SDS011;23625;48.784;9.336;2023-05-16T12:53:09;11.00;;;6.63;;
37785;SDS011;23625;48.784;9.336;2023-05-16T12:55:36;10.23;;;6.20;;
37785;SDS011;23625;48.784;9.336;2023-05-16T12:58:02;9.68;;;5.88;;
37785;SDS011;23625;48.784;9.336;2023-05-16T13:00:28;12.70;;;7.93;;
37785;SDS011;23625;48.784;9.336;2023-05-16T13:02:53;12.25;;;6.15;;
37785;SDS011;23625;48.784;9.336;2023-05-16T13:05:19;10.30;;;6.15;;
37785;SDS011;23625;48.784;9.336;2023-05-16T13:07:47;9.60;;;6.05;;
37785;SDS011;23625;48.784;9.336;2023-05-16T13:10:15;10.57;;;6.15;;
37785;SDS011;23625;48.784;9.336;2023-05-16T13:12:42;11.68;;;6.13;;
37785;SDS011;23625;48.784;9.336;2023-05-16T13:15:08;11.25;;;5.53;;
37785;SDS011;23625;48.784;9.336;2023-05-16T13:17:36;10.20;;;5.70;;
37785;SDS011;23625;48.784;9.336;2023-05-16T13:20:03;7.72;;;4.45;;
37785;SDS011;23625;48.784;9.336;2023-05-16T13:22:34;11.77;;;5.60;;
37785;SDS011;23625;48.784;9.336;2023-05-16T13:25:00;10.23;;;5.90;;
37785;SDS011;23625;48.784;9.336;2023-05-16T13:27:26;9.07;;;4.43;;
37785;SDS011;23625;48.784;9.336;2023-05-16T13:29:52;7.60;;;4.90;;
37785;SDS011;23625;48.784;9.336;2023-05-16T13:32:17;7.32;;;5.00;;
37785;SDS011;23625;48.784;9.336;2023-05-16T13:34:43;8.85;;;5.13;;
37785;SDS011;23625;48.784;9.336;2023-05-16T13:37:09;5.90;;;4.35;;
37785;SDS011;23625;48.784;9.336;2023-05-16T13:39:34;6.63;;;4.53;;
37785;SDS011;23625;48.784;9.336;2023-05-16T13:42:00;7.28;;;5.22;;
37785;SDS011;23625;48.784;9.336;2023-05-16T13:44:27;8.25;;;4.38;;
37785;SDS011;23625;48.784;9.336;2023-05-16T13:46:52;9.43;;;4.85;;
37785;SDS011;23625;48.784;9.336;2023-05-16T13:49:18;6.00;;;4.30;;
37785;SDS011;23625;48.784;9.336;2023-05-16T13:51:43;8.82;;;4.20;;
37785;SDS011;23625;48.784;9.336;2023-05-16T13:54:09;8.48;;;3.97;;
37785;SDS011;23625;48.784;9.336;2023-05-16T13:56:35;5.45;;;3.90;;
37785;SDS011;23625;48.784;9.336;2023-05-16T13:59:00;10.27;;;3.72;;
37785;SDS011;23625;48.784;9.336;2023-05-16T14:01:26;5.50;;;3.45;;
37785;SDS011;23625;48.784;9.336;2023-05-16T14:03:52;7.38;;;3.95;;
37785;SDS011;23625;48.784;9.336;2023-05-16T14:06:17;7.40;;;3.17;;
37785;SDS011;23625;48.784;9.336;2023-05-16T14:08:43;5.13;;;3.13;;
37785;SDS011;23625;48.784;9.336;2023-05-16T14:11:08;4.85;;;3.45;;
37785;SDS011;23625;48.784;9.336;2023-05-16T14:13:34;4.88;;;3.38;;
37785;SDS011;23625;48.784;9.336;2023-05-16T14:16:00;6.88;;;4.00;;
37785;SDS011;23625;48.784;9.336;2023-05-16T14:18:26;5.78;;;3.50;;
37785;SDS011;23625;48.784;9.336;2023-05-16T14:20:51;5.97;;;3.00;;
37785;SDS011;23625;48.784;9.336;2023-05-16T14:23:20;6.38;;;3.58;;
37785;SDS011;23625;48.784;9.336;2023-05-16T14:25:46;4.43;;;3.08;;
37785;SDS011;23625;48.784;9.336;2023-05-16T14:28:11;6.05;;;3.20;;
37785;SDS011;23625;48.784;9.336;2023-05-16T14:30:37;7.13;;;3.47;;
37785;SDS011;23625;48.784;9.336;2023-05-16T14:33:02;4.80;;;2.92;;
37785;SDS011;23625;48.784;9.336;2023-05-16T14:35:28;6.38;;;3.42;;
37785;SDS011;23625;48.784;9.336;2023-05-16T14:37:55;4.45;;;2.83;;
37785;SDS011;23625;48.784;9.336;2023-05-16T14:40:20;4.15;;;2.85;;
37785;SDS011;23625;48.784;9.336;2023-05-16T14:42:46;5.68;;;3.08;;
37785;SDS011;23625;48.784;9.336;2023-05-16T14:45:11;7.70;;;2.88;;
37785;SDS011;23625;48.784;9.336;2023-05-16T14:47:37;6.78;;;2.95;;